ADDS - METARS form results

Aviation Digital Data Service (ADDS)

Output produced by METARs form (2148 UTC 19 June 2019)
found at http://aviationweather.gov/metar/data/
 
METAR text: KVYS 192135Z AUTO 05015G20KT 10SM SCT028 BKN033 OVC095 20/17 A2967 RMK AO2 T02020166
Conditions at: KVYS (PERU , IL, US) observed 2135 UTC 19 June 2019
Temperature: 20.2°C (68°F)
Dewpoint: 16.6°C (62°F) [RH = 80%]
Pressure (altimeter): 29.67 inches Hg (1004.8 mb)
Winds: from the NE (50 degrees) at 17 MPH (15 knots; 7.7 m/s)
gusting to 23 MPH (20 knots; 10.3 m/s)
Visibility: 10 or more miles (16+ km)
Ceiling: 3300 feet AGL
Clouds: scattered clouds at 2800 feet AGL
broken clouds at 3300 feet AGL
overcast cloud deck at 9500 feet AGL
Weather: automated observation with no human augmentation;
there may or may not be significant weather present at this time

METAR text: KVYS 192115Z AUTO 05015KT 7SM -RA SCT030 BKN044 OVC095 21/17 A2967 RMK AO2 T02100173
Conditions at: KVYS (PERU , IL, US) observed 2115 UTC 19 June 2019
Temperature: 21.0°C (70°F)
Dewpoint: 17.3°C (63°F) [RH = 79%]
Pressure (altimeter): 29.67 inches Hg (1004.8 mb)
Winds: from the NE (50 degrees) at 17 MPH (15 knots; 7.7 m/s)
Visibility: 7 miles (11 km)
Ceiling: 4400 feet AGL
Clouds: scattered clouds at 3000 feet AGL
broken clouds at 4400 feet AGL
overcast cloud deck at 9500 feet AGL
Weather: -RA  (light rain)

METAR text: KVYS 192055Z AUTO 05011KT 7SM -RA SCT046 BKN055 OVC090 21/18 A2967 RMK AO2 T02120181
Conditions at: KVYS (PERU , IL, US) observed 2055 UTC 19 June 2019
Temperature: 21.2°C (70°F)
Dewpoint: 18.1°C (65°F) [RH = 82%]
Pressure (altimeter): 29.67 inches Hg (1004.8 mb)
Winds: from the NE (50 degrees) at 13 MPH (11 knots; 5.7 m/s)
Visibility: 7 miles (11 km)
Ceiling: 5500 feet AGL
Clouds: scattered clouds at 4600 feet AGL
broken clouds at 5500 feet AGL
overcast cloud deck at 9000 feet AGL
Weather: -RA  (light rain)